sensor_id;sensor_type;location;lat;lon;timestamp;pressure;altitude;pressure_sealevel;temperature;humidity
6393;BME280;3229;42.674;23.282;2024-01-30T00:00:36;96532.31;;;5.87;53.23
6393;BME280;3229;42.674;23.282;2024-01-30T00:03:03;96531.56;;;5.85;53.37
6393;BME280;3229;42.674;23.282;2024-01-30T00:05:30;96533.28;;;5.84;53.36
6393;BME280;3229;42.674;23.282;2024-01-30T00:07:58;96534.16;;;5.83;53.26
6393;BME280;3229;42.674;23.282;2024-01-30T00:10:25;96524.06;;;5.82;53.36
6393;BME280;3229;42.674;23.282;2024-01-30T00:12:52;96527.56;;;5.79;53.33
6393;BME280;3229;42.674;23.282;2024-01-30T00:15:19;96520.97;;;5.75;53.55
6393;BME280;3229;42.674;23.282;2024-01-30T00:17:45;96493.78;;;5.57;53.34
6393;BME280;3229;42.674;23.282;2024-01-30T00:20:12;96535.28;;;5.76;53.33
6393;BME280;3229;42.674;23.282;2024-01-30T00:22:39;96534.53;;;5.74;53.38
6393;BME280;3229;42.674;23.282;2024-01-30T00:25:08;96534.59;;;5.72;53.38
6393;BME280;3229;42.674;23.282;2024-01-30T00:27:35;96524.75;;;5.65;53.31
6393;BME280;3229;42.674;23.282;2024-01-30T00:30:02;96510.84;;;5.53;53.27
6393;BME280;3229;42.674;23.282;2024-01-30T00:32:28;96530.53;;;5.68;53.34
6393;BME280;3229;42.674;23.282;2024-01-30T00:34:55;96529.81;;;5.65;53.49
6393;BME280;3229;42.674;23.282;2024-01-30T00:37:22;96486.91;;;5.38;53.16
6393;BME280;3229;42.674;23.282;2024-01-30T00:39:49;96528.94;;;5.66;53.38
6393;BME280;3229;42.674;23.282;2024-01-30T00:42:17;96510.97;;;5.50;53.35
6393;BME280;3229;42.674;23.282;2024-01-30T00:44:44;96526.47;;;5.64;53.22
6393;BME280;3229;42.674;23.282;2024-01-30T00:47:11;96505.78;;;5.53;53.49
6393;BME280;3229;42.674;23.282;2024-01-30T00:49:38;96524.88;;;5.62;53.35
6393;BME280;3229;42.674;23.282;2024-01-30T00:52:05;96531.66;;;5.61;53.46
6393;BME280;3229;42.674;23.282;2024-01-30T00:54:32;96527.47;;;5.60;53.38
6393;BME280;3229;42.674;23.282;2024-01-30T00:56:59;96523.38;;;5.58;53.33
6393;BME280;3229;42.674;23.282;2024-01-30T00:59:27;96507.63;;;5.49;53.44
6393;BME280;3229;42.674;23.282;2024-01-30T01:01:54;96529.13;;;5.61;53.46
6393;BME280;3229;42.674;23.282;2024-01-30T01:04:20;96506.91;;;5.46;53.38
6393;BME280;3229;42.674;23.282;2024-01-30T01:06:47;96505.13;;;5.48;53.40
6393;BME280;3229;42.674;23.282;2024-01-30T01:09:14;96525.81;;;5.59;53.49
6393;BME280;3229;42.674;23.282;2024-01-30T01:11:41;96520.75;;;5.59;53.53
6393;BME280;3229;42.674;23.282;2024-01-30T01:14:08;96519.94;;;5.59;53.46
6393;BME280;3229;42.674;23.282;2024-01-30T01:16:36;96523.38;;;5.58;53.47
6393;BME280;3229;42.674;23.282;2024-01-30T01:19:03;96524.19;;;5.58;53.54
6393;BME280;3229;42.674;23.282;2024-01-30T01:21:30;96524.22;;;5.57;53.59
6393;BME280;3229;42.674;23.282;2024-01-30T01:23:56;96507.84;;;5.43;53.63
6393;BME280;3229;42.674;23.282;2024-01-30T01:26:23;96522.66;;;5.54;53.52
6393;BME280;3229;42.674;23.282;2024-01-30T01:28:50;96526.09;;;5.53;53.63
6393;BME280;3229;42.674;23.282;2024-01-30T01:31:16;96524.41;;;5.52;53.63
6393;BME280;3229;42.674;23.282;2024-01-30T01:33:45;96526.91;;;5.53;53.64
6393;BME280;3229;42.674;23.282;2024-01-30T01:36:13;96522.66;;;5.54;53.69
6393;BME280;3229;42.674;23.282;2024-01-30T01:38:40;96525.19;;;5.54;53.64
6393;BME280;3229;42.674;23.282;2024-01-30T01:41:07;96495.50;;;5.36;53.72
6393;BME280;3229;42.674;23.282;2024-01-30T01:43:34;96526.91;;;5.53;53.52
6393;BME280;3229;42.674;23.282;2024-01-30T01:46:00;96531.16;;;5.53;53.57
6393;BME280;3229;42.674;23.282;2024-01-30T01:48:27;96521.00;;;5.53;53.50
6393;BME280;3229;42.674;23.282;2024-01-30T01:50:56;96492.28;;;5.31;53.63
6393;BME280;3229;42.674;23.282;2024-01-30T01:53:23;96525.31;;;5.51;53.56
6393;BME280;3229;42.674;23.282;2024-01-30T01:55:50;96509.53;;;5.44;53.62
6393;BME280;3229;42.674;23.282;2024-01-30T01:58:19;96528.81;;;5.48;53.60
6393;BME280;3229;42.674;23.282;2024-01-30T02:00:46;96527.09;;;5.49;53.70
6393;BME280;3229;42.674;23.282;2024-01-30T02:03:14;96529.66;;;5.47;53.73
6393;BME280;3229;42.674;23.282;2024-01-30T02:05:43;96523.84;;;5.45;53.60
6393;BME280;3229;42.674;23.282;2024-01-30T02:08:11;96534.91;;;5.44;53.62
6393;BME280;3229;42.674;23.282;2024-01-30T02:10:38;96526.69;;;5.38;53.54
6393;BME280;3229;42.674;23.282;2024-01-30T02:13:05;96531.66;;;5.41;53.56
6393;BME280;3229;42.674;23.282;2024-01-30T02:15:32;96539.06;;;5.45;53.51
6393;BME280;3229;42.674;23.282;2024-01-30T02:17:58;96528.91;;;5.45;53.72
6393;BME280;3229;42.674;23.282;2024-01-30T02:20:27;96509.03;;;5.35;53.53
6393;BME280;3229;42.674;23.282;2024-01-30T02:22:58;96530.31;;;5.52;53.65
6393;BME280;3229;42.674;23.282;2024-01-30T02:25:38;96530.19;;;5.56;53.31
6393;BME280;3229;42.674;23.282;2024-01-30T02:28:09;96432.78;;;4.97;53.50
6393;BME280;3229;42.674;23.282;2024-01-30T02:30:36;96530.00;;;5.60;53.52
6393;BME280;3229;42.674;23.282;2024-01-30T02:33:03;96521.50;;;5.61;53.35
6393;BME280;3229;42.674;23.282;2024-01-30T02:35:29;96525.63;;;5.64;53.31
6393;BME280;3229;42.674;23.282;2024-01-30T02:37:58;96527.25;;;5.66;53.39
6393;BME280;3229;42.674;23.282;2024-01-30T02:40:24;96529.63;;;5.69;53.22
6393;BME280;3229;42.674;23.282;2024-01-30T02:42:51;96517.94;;;5.65;53.11
6393;BME280;3229;42.674;23.282;2024-01-30T02:45:18;96489.84;;;5.49;53.09
6393;BME280;3229;42.674;23.282;2024-01-30T02:47:45;96521.19;;;5.69;53.15
6393;BME280;3229;42.674;23.282;2024-01-30T02:50:12;96534.41;;;5.77;53.01
6393;BME280;3229;42.674;23.282;2024-01-30T02:52:40;96530.97;;;5.78;52.97
6393;BME280;3229;42.674;23.282;2024-01-30T02:55:12;96479.75;;;5.48;53.10
6393;BME280;3229;42.674;23.282;2024-01-30T02:57:39;96533.31;;;5.83;52.94
6393;BME280;3229;42.674;23.282;2024-01-30T03:00:07;96534.91;;;5.85;52.82
6393;BME280;3229;42.674;23.282;2024-01-30T03:02:35;96520.00;;;5.77;52.88
6393;BME280;3229;42.674;23.282;2024-01-30T03:05:02;96535.69;;;5.87;52.82
6393;BME280;3229;42.674;23.282;2024-01-30T03:07:29;96525.47;;;5.89;52.78
6393;BME280;3229;42.674;23.282;2024-01-30T03:09:55;96523.66;;;5.91;52.94
6393;BME280;3229;42.674;23.282;2024-01-30T03:12:24;96512.06;;;5.85;52.86
6393;BME280;3229;42.674;23.282;2024-01-30T03:14:50;96524.47;;;5.93;52.82
6393;BME280;3229;42.674;23.282;2024-01-30T03:17:17;96529.47;;;5.94;52.66
6393;BME280;3229;42.674;23.282;2024-01-30T03:19:44;96530.31;;;5.95;52.77
6393;BME280;3229;42.674;23.282;2024-01-30T03:22:11;96512.75;;;5.89;52.71
6393;BME280;3229;42.674;23.282;2024-01-30T03:24:38;96525.22;;;5.95;52.57
6393;BME280;3229;42.674;23.282;2024-01-30T03:27:05;96513.50;;;5.91;52.67
6393;BME280;3229;42.674;23.282;2024-01-30T03:29:33;96504.44;;;5.85;52.68
6393;BME280;3229;42.674;23.282;2024-01-30T03:31:59;96525.22;;;5.95;52.68
6393;BME280;3229;42.674;23.282;2024-01-30T03:34:26;96503.53;;;5.86;52.66
6393;BME280;3229;42.674;23.282;2024-01-30T03:36:53;96515.75;;;5.98;52.44
6393;BME280;3229;42.674;23.282;2024-01-30T03:39:20;96515.75;;;5.98;52.51
6393;BME280;3229;42.674;23.282;2024-01-30T03:41:46;96512.41;;;5.98;52.37
6393;BME280;3229;42.674;23.282;2024-01-30T03:44:13;96490.16;;;5.83;52.41
6393;BME280;3229;42.674;23.282;2024-01-30T03:46:41;96509.88;;;5.98;52.42
6393;BME280;3229;42.674;23.282;2024-01-30T03:49:09;96518.31;;;5.98;52.34
6393;BME280;3229;42.674;23.282;2024-01-30T03:51:36;96513.22;;;5.98;52.19
6393;BME280;3229;42.674;23.282;2024-01-30T03:54:03;96498.19;;;5.94;52.04
6393;BME280;3229;42.674;23.282;2024-01-30T03:56:30;96508.06;;;6.00;52.09
6393;BME280;3229;42.674;23.282;2024-01-30T03:58:56;96509.75;;;6.01;52.00
6393;BME280;3229;42.674;23.282;2024-01-30T04:01:24;96509.75;;;6.01;51.94
6393;BME280;3229;42.674;23.282;2024-01-30T04:03:52;96504.72;;;5.99;52.01
6393;BME280;3229;42.674;23.282;2024-01-30T04:06:19;96499.78;;;5.96;51.92
6393;BME280;3229;42.674;23.282;2024-01-30T04:08:45;96504.88;;;5.96;51.81
6393;BME280;3229;42.674;23.282;2024-01-30T04:11:12;96400.16;;;5.30;51.74
6393;BME280;3229;42.674;23.282;2024-01-30T04:13:39;96471.13;;;5.72;51.83
6393;BME280;3229;42.674;23.282;2024-01-30T04:16:08;96441.44;;;5.54;51.66
6393;BME280;3229;42.674;23.282;2024-01-30T04:18:35;96505.88;;;5.92;51.80
6393;BME280;3229;42.674;23.282;2024-01-30T04:21:03;96506.69;;;5.93;51.68
6393;BME280;3229;42.674;23.282;2024-01-30T04:23:30;96505.88;;;5.92;51.79
6393;BME280;3229;42.674;23.282;2024-01-30T04:25:57;96505.88;;;5.92;51.68
6393;BME280;3229;42.674;23.282;2024-01-30T04:28:24;96506.69;;;5.93;51.63
6393;BME280;3229;42.674;23.282;2024-01-30T04:30:50;96511.78;;;5.93;51.63
6393;BME280;3229;42.674;23.282;2024-01-30T04:33:17;96511.78;;;5.93;51.58
6393;BME280;3229;42.674;23.282;2024-01-30T04:35:44;96512.69;;;5.92;51.78
6393;BME280;3229;42.674;23.282;2024-01-30T04:38:12;96507.69;;;5.89;51.57
6393;BME280;3229;42.674;23.282;2024-01-30T04:40:39;96510.06;;;5.93;51.59
6393;BME280;3229;42.674;23.282;2024-01-30T04:43:06;96510.97;;;5.92;51.59
6393;BME280;3229;42.674;23.282;2024-01-30T04:45:35;96509.44;;;5.87;51.63
6393;BME280;3229;42.674;23.282;2024-01-30T04:48:03;96506.88;;;5.88;51.44
6393;BME280;3229;42.674;23.282;2024-01-30T04:50:29;96521.94;;;5.93;51.57
6393;BME280;3229;42.674;23.282;2024-01-30T04:52:56;96502.28;;;5.76;51.51
6393;BME280;3229;42.674;23.282;2024-01-30T04:55:24;96515.63;;;5.81;51.54
6393;BME280;3229;42.674;23.282;2024-01-30T04:57:51;96525.66;;;5.84;51.49
6393;BME280;3229;42.674;23.282;2024-01-30T05:00:18;96524.84;;;5.84;51.58
6393;BME280;3229;42.674;23.282;2024-01-30T05:02:45;96539.88;;;5.88;51.48
6393;BME280;3229;42.674;23.282;2024-01-30T05:05:12;96530.03;;;5.81;51.45
6393;BME280;3229;42.674;23.282;2024-01-30T05:07:41;96539.91;;;5.87;51.53
6393;BME280;3229;42.674;23.282;2024-01-30T05:10:08;96534.28;;;5.80;51.56
6393;BME280;3229;42.674;23.282;2024-01-30T05:12:38;96551.94;;;5.83;51.52
6393;BME280;3229;42.674;23.282;2024-01-30T05:15:05;96540.19;;;5.81;51.47
6393;BME280;3229;42.674;23.282;2024-01-30T05:17:32;96527.78;;;5.73;51.41
6393;BME280;3229;42.674;23.282;2024-01-30T05:19:59;96547.16;;;5.75;51.47
6393;BME280;3229;42.674;23.282;2024-01-30T05:22:26;96546.47;;;5.72;51.81
6393;BME280;3229;42.674;23.282;2024-01-30T05:24:53;96552.47;;;5.69;51.52
6393;BME280;3229;42.674;23.282;2024-01-30T05:27:20;96546.72;;;5.66;51.45
6393;BME280;3229;42.674;23.282;2024-01-30T05:29:48;96549.31;;;5.64;51.53
6393;BME280;3229;42.674;23.282;2024-01-30T05:32:15;96542.66;;;5.62;51.62
6393;BME280;3229;42.674;23.282;2024-01-30T05:34:42;96541.06;;;5.59;51.66
6393;BME280;3229;42.674;23.282;2024-01-30T05:37:08;96517.34;;;5.38;51.76
6393;BME280;3229;42.674;23.282;2024-01-30T05:39:39;96535.53;;;5.49;51.70
6393;BME280;3229;42.674;23.282;2024-01-30T05:42:06;96545.53;;;5.52;51.83
6393;BME280;3229;42.674;23.282;2024-01-30T05:44:33;96553.22;;;5.51;51.85
6393;BME280;3229;42.674;23.282;2024-01-30T05:47:01;96542.31;;;5.49;51.82
6393;BME280;3229;42.674;23.282;2024-01-30T05:49:28;96535.00;;;5.41;51.81
6393;BME280;3229;42.674;23.282;2024-01-30T05:51:55;96543.25;;;5.46;51.85
6393;BME280;3229;42.674;23.282;2024-01-30T05:54:22;96489.59;;;5.13;51.88
6393;BME280;3229;42.674;23.282;2024-01-30T05:56:49;96537.47;;;5.43;51.85
6393;BME280;3229;42.674;23.282;2024-01-30T05:59:15;96539.19;;;5.42;51.73
6393;BME280;3229;42.674;23.282;2024-01-30T06:01:45;96535.00;;;5.41;51.56
6393;BME280;3229;42.674;23.282;2024-01-30T06:04:14;96539.19;;;5.42;51.86
6393;BME280;3229;42.674;23.282;2024-01-30T06:06:41;96508.59;;;5.25;51.62
6393;BME280;3229;42.674;23.282;2024-01-30T06:09:08;96538.38;;;5.42;51.77
6393;BME280;3229;42.674;23.282;2024-01-30T06:11:35;96518.81;;;5.23;51.77
6393;BME280;3229;42.674;23.282;2024-01-30T06:14:02;96534.81;;;5.46;56.54
6393;BME280;3229;42.674;23.282;2024-01-30T06:16:29;96541.31;;;6.35;99.15
6393;BME280;3229;42.674;23.282;2024-01-30T06:18:55;96434.13;;;6.82;98.07
6393;BME280;3229;42.674;23.282;2024-01-30T06:21:24;96499.56;;;8.18;92.77
6393;BME280;3229;42.674;23.282;2024-01-30T06:23:50;96539.28;;;9.20;87.47
6393;BME280;3229;42.674;23.282;2024-01-30T06:26:17;96542.03;;;9.47;82.44
6393;BME280;3229;42.674;23.282;2024-01-30T06:28:44;96534.88;;;9.38;75.30
6393;BME280;3229;42.674;23.282;2024-01-30T06:31:11;96545.16;;;9.37;69.09
6393;BME280;3229;42.674;23.282;2024-01-30T06:33:38;96545.59;;;9.29;65.73
6393;BME280;3229;42.674;23.282;2024-01-30T06:36:05;96543.94;;;9.28;64.64
6393;BME280;3229;42.674;23.282;2024-01-30T06:38:33;96537.34;;;9.40;63.65
6393;BME280;3229;42.674;23.282;2024-01-30T06:41:00;96549.22;;;9.71;62.32
6393;BME280;3229;42.674;23.282;2024-01-30T06:43:27;96550.28;;;9.97;61.02
6393;BME280;3229;42.674;23.282;2024-01-30T06:45:54;96561.09;;;10.32;60.08
6393;BME280;3229;42.674;23.282;2024-01-30T06:48:20;96556.50;;;10.66;59.24
6393;BME280;3229;42.674;23.282;2024-01-30T06:50:47;96544.97;;;11.01;58.16
6393;BME280;3229;42.674;23.282;2024-01-30T06:53:14;96559.91;;;11.49;57.76
6393;BME280;3229;42.674;23.282;2024-01-30T06:55:42;96557.09;;;11.93;56.57
6393;BME280;3229;42.674;23.282;2024-01-30T06:58:09;96558.88;;;12.44;55.96
6393;BME280;3229;42.674;23.282;2024-01-30T07:00:36;96557.78;;;12.97;55.32
6393;BME280;3229;42.674;23.282;2024-01-30T07:03:03;96420.31;;;12.68;54.55
6393;BME280;3229;42.674;23.282;2024-01-30T07:05:31;96566.88;;;14.10;53.66
6393;BME280;3229;42.674;23.282;2024-01-30T07:07:58;96562.91;;;14.64;52.52
6393;BME280;3229;42.674;23.282;2024-01-30T07:10:25;96563.78;;;15.19;51.75
6393;BME280;3229;42.674;23.282;2024-01-30T07:12:53;96560.97;;;15.76;50.68
6393;BME280;3229;42.674;23.282;2024-01-30T07:15:20;96555.19;;;16.26;49.75
6393;BME280;3229;42.674;23.282;2024-01-30T07:17:47;96558.34;;;16.81;48.88
6393;BME280;3229;42.674;23.282;2024-01-30T07:20:14;96541.84;;;17.22;47.72
6393;BME280;3229;42.674;23.282;2024-01-30T07:22:41;96562.66;;;17.80;47.01
6393;BME280;3229;42.674;23.282;2024-01-30T07:25:08;96575.72;;;18.27;46.09
6393;BME280;3229;42.674;23.282;2024-01-30T07:27:35;96576.19;;;18.70;45.39
6393;BME280;3229;42.674;23.282;2024-01-30T07:30:04;96578.47;;;19.10;44.61
6393;BME280;3229;42.674;23.282;2024-01-30T07:32:31;96574.03;;;19.48;43.74
6393;BME280;3229;42.674;23.282;2024-01-30T07:34:58;96566.75;;;19.79;43.54
6393;BME280;3229;42.674;23.282;2024-01-30T07:37:25;96566.06;;;20.13;42.71
6393;BME280;3229;42.674;23.282;2024-01-30T07:39:51;96564.13;;;20.41;41.78
6393;BME280;3229;42.674;23.282;2024-01-30T07:42:18;96564.00;;;20.68;41.65
6393;BME280;3229;42.674;23.282;2024-01-30T07:44:45;96561.00;;;20.89;41.14
6393;BME280;3229;42.674;23.282;2024-01-30T07:47:13;96565.00;;;21.10;40.69
6393;BME280;3229;42.674;23.282;2024-01-30T07:49:40;96560.34;;;21.21;40.30
6393;BME280;3229;42.674;23.282;2024-01-30T07:52:07;96559.91;;;21.34;39.77
6393;BME280;3229;42.674;23.282;2024-01-30T07:54:33;96559.97;;;21.50;39.49
6393;BME280;3229;42.674;23.282;2024-01-30T07:57:09;96557.03;;;21.62;38.86
6393;BME280;3229;42.674;23.282;2024-01-30T07:59:36;96543.38;;;21.68;38.67
6393;BME280;3229;42.674;23.282;2024-01-30T08:02:03;96540.13;;;21.74;38.72
6393;BME280;3229;42.674;23.282;2024-01-30T08:04:31;96562.94;;;21.96;38.07
6393;BME280;3229;42.674;23.282;2024-01-30T08:06:58;96555.59;;;22.00;37.77
6393;BME280;3229;42.674;23.282;2024-01-30T08:09:25;96556.41;;;22.00;37.32
6393;BME280;3229;42.674;23.282;2024-01-30T08:11:52;96557.38;;;21.83;37.41
6393;BME280;3229;42.674;23.282;2024-01-30T08:14:18;96554.59;;;21.52;37.48
6393;BME280;3229;42.674;23.282;2024-01-30T08:16:45;96561.28;;;21.54;36.83
6393;BME280;3229;42.674;23.282;2024-01-30T08:19:12;96560.28;;;21.47;36.51
6393;BME280;3229;42.674;23.282;2024-01-30T08:21:40;96551.28;;;20.91;36.33
6393;BME280;3229;42.674;23.282;2024-01-30T08:24:08;96557.59;;;20.37;36.23
6393;BME280;3229;42.674;23.282;2024-01-30T08:26:35;96557.81;;;19.82;36.07
6393;BME280;3229;42.674;23.282;2024-01-30T08:29:03;96555.16;;;19.28;36.27
6393;BME280;3229;42.674;23.282;2024-01-30T08:31:30;96560.00;;;18.86;36.57
6393;BME280;3229;42.674;23.282;2024-01-30T08:33:57;96568.00;;;18.55;36.41
6393;BME280;3229;42.674;23.282;2024-01-30T08:36:24;96550.53;;;18.00;36.77
6393;BME280;3229;42.674;23.282;2024-01-30T08:38:53;96568.06;;;17.68;36.77
6393;BME280;3229;42.674;23.282;2024-01-30T08:41:19;96565.56;;;17.27;37.02
6393;BME280;3229;42.674;23.282;2024-01-30T08:43:46;96566.56;;;16.96;37.25
6393;BME280;3229;42.674;23.282;2024-01-30T08:46:16;96567.31;;;16.77;37.35
6393;BME280;3229;42.674;23.282;2024-01-30T08:48:43;96571.47;;;16.68;37.00
6393;BME280;3229;42.674;23.282;2024-01-30T08:51:10;96561.28;;;16.46;37.03
6393;BME280;3229;42.674;23.282;2024-01-30T08:53:37;96568.03;;;16.16;37.39
6393;BME280;3229;42.674;23.282;2024-01-30T08:56:06;96569.34;;;15.90;37.51
6393;BME280;3229;42.674;23.282;2024-01-30T08:58:33;96574.34;;;15.70;37.53
6393;BME280;3229;42.674;23.282;2024-01-30T09:01:00;96574.25;;;15.49;37.61
6393;BME280;3229;42.674;23.282;2024-01-30T09:03:29;96570.91;;;15.26;37.80
6393;BME280;3229;42.674;23.282;2024-01-30T09:05:55;96577.38;;;15.10;38.09
6393;BME280;3229;42.674;23.282;2024-01-30T09:08:22;96585.47;;;14.94;38.00
6393;BME280;3229;42.674;23.282;2024-01-30T09:10:49;96513.91;;;14.41;38.20
6393;BME280;3229;42.674;23.282;2024-01-30T09:13:17;96577.53;;;14.74;38.14
6393;BME280;3229;42.674;23.282;2024-01-30T09:15:44;96557.72;;;14.52;38.12
6393;BME280;3229;42.674;23.282;2024-01-30T09:18:11;96570.03;;;14.60;37.96
6393;BME280;3229;42.674;23.282;2024-01-30T09:20:38;96569.69;;;14.65;38.08
6393;BME280;3229;42.674;23.282;2024-01-30T09:23:05;96570.94;;;14.59;38.08
6393;BME280;3229;42.674;23.282;2024-01-30T09:25:31;96571.63;;;14.50;37.88
6393;BME280;3229;42.674;23.282;2024-01-30T09:27:59;96564.72;;;14.39;38.06
6393;BME280;3229;42.674;23.282;2024-01-30T09:30:28;96563.72;;;14.29;38.12
6393;BME280;3229;42.674;23.282;2024-01-30T09:32:54;96535.72;;;14.02;38.12
6393;BME280;3229;42.674;23.282;2024-01-30T09:35:21;96565.66;;;14.03;38.34
6393;BME280;3229;42.674;23.282;2024-01-30T09:37:48;96555.91;;;13.84;38.31
6393;BME280;3229;42.674;23.282;2024-01-30T09:40:15;96557.63;;;13.72;38.34
6393;BME280;3229;42.674;23.282;2024-01-30T09:42:46;96544.13;;;13.58;38.53
6393;BME280;3229;42.674;23.282;2024-01-30T09:45:14;96540.34;;;13.50;38.90
6393;BME280;3229;42.674;23.282;2024-01-30T09:47:44;96544.78;;;13.48;38.69
6393;BME280;3229;42.674;23.282;2024-01-30T09:50:12;96536.94;;;13.39;38.72
6393;BME280;3229;42.674;23.282;2024-01-30T09:52:40;96544.34;;;13.30;38.66
6393;BME280;3229;42.674;23.282;2024-01-30T09:55:07;96536.97;;;13.13;38.74
6393;BME280;3229;42.674;23.282;2024-01-30T09:57:34;96547.91;;;13.04;38.80
6393;BME280;3229;42.674;23.282;2024-01-30T10:00:01;96541.38;;;12.87;38.87
6393;BME280;3229;42.674;23.282;2024-01-30T10:02:29;96550.94;;;12.72;39.16
6393;BME280;3229;42.674;23.282;2024-01-30T10:04:57;96518.94;;;12.40;39.18
6393;BME280;3229;42.674;23.282;2024-01-30T10:07:24;96549.31;;;12.46;39.40
6393;BME280;3229;42.674;23.282;2024-01-30T10:09:50;96546.63;;;12.35;39.27
6393;BME280;3229;42.674;23.282;2024-01-30T10:12:18;96526.22;;;12.20;39.42
6393;BME280;3229;42.674;23.282;2024-01-30T10:14:45;96505.63;;;12.09;39.56
6393;BME280;3229;42.674;23.282;2024-01-30T10:17:12;96522.03;;;12.19;39.44
6393;BME280;3229;42.674;23.282;2024-01-30T10:19:40;96529.84;;;12.18;39.39
6393;BME280;3229;42.674;23.282;2024-01-30T10:22:09;96524.28;;;12.24;39.35
6393;BME280;3229;42.674;23.282;2024-01-30T10:24:36;96530.22;;;12.24;39.17
6393;BME280;3229;42.674;23.282;2024-01-30T10:27:05;96526.34;;;12.19;39.36
6393;BME280;3229;42.674;23.282;2024-01-30T10:29:32;96527.47;;;12.15;39.33
6393;BME280;3229;42.674;23.282;2024-01-30T10:31:59;96531.97;;;12.11;39.42
6393;BME280;3229;42.674;23.282;2024-01-30T10:34:26;96536.09;;;12.14;39.25
6393;BME280;3229;42.674;23.282;2024-01-30T10:37:04;96535.97;;;12.15;39.46
6393;BME280;3229;42.674;23.282;2024-01-30T10:39:38;96530.13;;;12.13;39.45
6393;BME280;3229;42.674;23.282;2024-01-30T10:42:06;96516.59;;;12.11;39.43
6393;BME280;3229;42.674;23.282;2024-01-30T10:44:39;96532.69;;;12.13;39.58
6393;BME280;3229;42.674;23.282;2024-01-30T10:47:12;96522.84;;;12.07;39.46
6393;BME280;3229;42.674;23.282;2024-01-30T10:49:40;96520.16;;;12.09;39.66
6393;BME280;3229;42.674;23.282;2024-01-30T10:52:09;96516.78;;;12.08;39.50
6393;BME280;3229;42.674;23.282;2024-01-30T10:54:37;96521.59;;;12.00;39.66
6393;BME280;3229;42.674;23.282;2024-01-30T10:57:05;96511.22;;;11.89;39.60
6393;BME280;3229;42.674;23.282;2024-01-30T10:59:32;96506.69;;;11.79;39.66
6393;BME280;3229;42.674;23.282;2024-01-30T11:02:00;96491.19;;;11.68;39.85
6393;BME280;3229;42.674;23.282;2024-01-30T11:04:27;96470.25;;;11.49;39.76
6393;BME280;3229;42.674;23.282;2024-01-30T11:07:01;96492.38;;;11.50;40.00
6393;BME280;3229;42.674;23.282;2024-01-30T11:09:29;96505.38;;;11.47;39.78
6393;BME280;3229;42.674;23.282;2024-01-30T11:11:58;96489.59;;;11.40;39.78
6393;BME280;3229;42.674;23.282;2024-01-30T11:14:27;96492.75;;;11.44;39.96
6393;BME280;3229;42.674;23.282;2024-01-30T11:16:57;96494.59;;;11.42;39.71
6393;BME280;3229;42.674;23.282;2024-01-30T11:19:24;96484.03;;;11.34;39.55
6393;BME280;3229;42.674;23.282;2024-01-30T11:21:52;96487.88;;;11.26;39.99
6393;BME280;3229;42.674;23.282;2024-01-30T11:24:20;96468.19;;;11.14;39.76
6393;BME280;3229;42.674;23.282;2024-01-30T11:26:48;96472.22;;;11.18;39.87
6393;BME280;3229;42.674;23.282;2024-01-30T11:29:18;96462.22;;;11.14;40.16
6393;BME280;3229;42.674;23.282;2024-01-30T11:31:54;96489.91;;;11.21;40.01
6393;BME280;3229;42.674;23.282;2024-01-30T11:34:22;96489.50;;;11.15;39.96
6393;BME280;3229;42.674;23.282;2024-01-30T11:36:52;96498.28;;;11.11;40.17
6393;BME280;3229;42.674;23.282;2024-01-30T11:39:25;96424.47;;;10.63;39.99
6393;BME280;3229;42.674;23.282;2024-01-30T11:41:52;96494.19;;;11.08;40.29
6393;BME280;3229;42.674;23.282;2024-01-30T11:44:20;96481.47;;;11.07;40.33
6393;BME280;3229;42.674;23.282;2024-01-30T11:46:48;96488.63;;;11.28;40.28
6393;BME280;3229;42.674;23.282;2024-01-30T11:49:16;96474.41;;;11.37;39.92
6393;BME280;3229;42.674;23.282;2024-01-30T11:51:43;96478.22;;;11.44;39.94
6393;BME280;3229;42.674;23.282;2024-01-30T11:54:09;96465.72;;;11.52;39.65
6393;BME280;3229;42.674;23.282;2024-01-30T11:56:37;96481.22;;;11.64;39.96
6393;BME280;3229;42.674;23.282;2024-01-30T11:59:03;96468.72;;;11.72;39.77
6393;BME280;3229;42.674;23.282;2024-01-30T12:01:32;96477.41;;;11.84;39.88
6393;BME280;3229;42.674;23.282;2024-01-30T12:03:59;96464.78;;;11.93;39.68
6393;BME280;3229;42.674;23.282;2024-01-30T12:06:26;96455.03;;;11.98;39.60
6393;BME280;3229;42.674;23.282;2024-01-30T12:08:57;96438.31;;;11.93;39.62
6393;BME280;3229;42.674;23.282;2024-01-30T12:11:24;96413.66;;;11.77;39.54
6393;BME280;3229;42.674;23.282;2024-01-30T12:13:51;96452.34;;;12.00;39.50
6393;BME280;3229;42.674;23.282;2024-01-30T12:16:19;96437.41;;;11.94;39.30
6393;BME280;3229;42.674;23.282;2024-01-30T12:18:47;96382.50;;;11.58;39.38
6393;BME280;3229;42.674;23.282;2024-01-30T12:21:16;96435.34;;;11.86;39.37
6393;BME280;3229;42.674;23.282;2024-01-30T12:23:43;96407.91;;;11.74;39.26
6393;BME280;3229;42.674;23.282;2024-01-30T12:26:10;96439.84;;;11.83;39.53
6393;BME280;3229;42.674;23.282;2024-01-30T12:28:47;96431.41;;;11.80;39.54
6393;BME280;3229;42.674;23.282;2024-01-30T12:31:14;96429.88;;;11.78;39.38
6393;BME280;3229;42.674;23.282;2024-01-30T12:33:41;96423.28;;;11.74;39.30
6393;BME280;3229;42.674;23.282;2024-01-30T12:36:11;96408.97;;;11.59;39.32
6393;BME280;3229;42.674;23.282;2024-01-30T12:38:38;96427.28;;;11.65;39.38
6393;BME280;3229;42.674;23.282;2024-01-30T12:41:07;96419.00;;;11.62;39.49
6393;BME280;3229;42.674;23.282;2024-01-30T12:43:35;96419.22;;;11.59;39.30
6393;BME280;3229;42.674;23.282;2024-01-30T12:46:03;96420.44;;;11.53;39.51
6393;BME280;3229;42.674;23.282;2024-01-30T12:48:30;96424.94;;;11.49;39.68
6393;BME280;3229;42.674;23.282;2024-01-30T12:50:56;96420.00;;;11.46;39.61
6393;BME280;3229;42.674;23.282;2024-01-30T12:53:25;96415.19;;;11.42;39.59
6393;BME280;3229;42.674;23.282;2024-01-30T12:55:52;96416.31;;;11.38;39.68
6393;BME280;3229;42.674;23.282;2024-01-30T12:58:19;96411.59;;;11.32;39.67
6393;BME280;3229;42.674;23.282;2024-01-30T13:00:46;96362.34;;;10.88;39.43
6393;BME280;3229;42.674;23.282;2024-01-30T13:03:13;96399.59;;;11.19;39.55
6393;BME280;3229;42.674;23.282;2024-01-30T13:05:40;96393.50;;;11.08;39.60
6393;BME280;3229;42.674;23.282;2024-01-30T13:08:07;96405.19;;;11.12;39.74
6393;BME280;3229;42.674;23.282;2024-01-30T13:10:35;96400.25;;;11.09;39.84
6393;BME280;3229;42.674;23.282;2024-01-30T13:13:02;96399.53;;;11.07;40.00
6393;BME280;3229;42.674;23.282;2024-01-30T13:15:29;96302.72;;;10.46;39.78
6393;BME280;3229;42.674;23.282;2024-01-30T13:17:55;96390.59;;;10.99;39.98